sensor_id;sensor_type;location;lat;lon;timestamp;pressure;altitude;pressure_sealevel;temperature;humidity
6423;BME280;3244;42.708;23.288;2022-07-04T00:01:41;95283.25;;;21.58;64.60
6423;BME280;3244;42.708;23.288;2022-07-04T00:04:09;95276.06;;;21.51;64.68
6423;BME280;3244;42.708;23.288;2022-07-04T00:06:36;95280.13;;;21.42;64.91
6423;BME280;3244;42.708;23.288;2022-07-04T00:09:03;95279.31;;;21.42;64.83
6423;BME280;3244;42.708;23.288;2022-07-04T00:11:30;95277.97;;;21.36;64.79
6423;BME280;3244;42.708;23.288;2022-07-04T00:13:57;95274.97;;;21.42;64.24
6423;BME280;3244;42.708;23.288;2022-07-04T00:16:23;95285.75;;;21.36;64.11
6423;BME280;3244;42.708;23.288;2022-07-04T00:18:50;95282.44;;;21.34;64.13
6423;BME280;3244;42.708;23.288;2022-07-04T00:21:18;95278.69;;;21.38;64.02
6423;BME280;3244;42.708;23.288;2022-07-04T00:23:45;95277.03;;;21.37;63.98
6423;BME280;3244;42.708;23.288;2022-07-04T00:26:12;95278.69;;;21.38;63.67
6423;BME280;3244;42.708;23.288;2022-07-04T00:28:38;95273.34;;;21.28;64.07
6423;BME280;3244;42.708;23.288;2022-07-04T00:31:05;95271.84;;;21.26;64.00
6423;BME280;3244;42.708;23.288;2022-07-04T00:33:32;95265.53;;;21.17;64.31
6423;BME280;3244;42.708;23.288;2022-07-04T00:35:59;95275.69;;;21.20;64.21
6423;BME280;3244;42.708;23.288;2022-07-04T00:38:27;95267.63;;;21.12;64.52
6423;BME280;3244;42.708;23.288;2022-07-04T00:40:54;95255.03;;;21.08;64.32
6423;BME280;3244;42.708;23.288;2022-07-04T00:43:22;95257.13;;;21.02;64.55
6423;BME280;3244;42.708;23.288;2022-07-04T00:45:49;95255.84;;;21.08;64.01
6423;BME280;3244;42.708;23.288;2022-07-04T00:48:16;95259.47;;;21.05;64.40
6423;BME280;3244;42.708;23.288;2022-07-04T00:50:44;95260.66;;;21.01;64.10
6423;BME280;3244;42.708;23.288;2022-07-04T00:53:11;95258.06;;;21.01;64.22
6423;BME280;3244;42.708;23.288;2022-07-04T00:55:40;95254.78;;;20.99;63.70
6423;BME280;3244;42.708;23.288;2022-07-04T00:58:07;95257.34;;;20.99;63.37
6423;BME280;3244;42.708;23.288;2022-07-04T01:00:34;95257.28;;;20.88;64.06
6423;BME280;3244;42.708;23.288;2022-07-04T01:03:01;95260.59;;;20.90;63.85
6423;BME280;3244;42.708;23.288;2022-07-04T01:05:28;95250.13;;;20.92;63.61
6423;BME280;3244;42.708;23.288;2022-07-04T01:07:55;95254.91;;;20.85;63.49
6423;BME280;3244;42.708;23.288;2022-07-04T01:10:22;95255.72;;;20.86;63.62
6423;BME280;3244;42.708;23.288;2022-07-04T01:12:50;95261.50;;;20.89;63.10
6423;BME280;3244;42.708;23.288;2022-07-04T01:15:17;95262.22;;;20.91;62.83
6423;BME280;3244;42.708;23.288;2022-07-04T01:17:44;95265.56;;;20.81;62.98
6423;BME280;3244;42.708;23.288;2022-07-04T01:20:13;95265.91;;;20.76;63.06
6423;BME280;3244;42.708;23.288;2022-07-04T01:22:40;95265.66;;;20.79;62.82
6423;BME280;3244;42.708;23.288;2022-07-04T01:25:07;95264.78;;;20.67;62.83
6423;BME280;3244;42.708;23.288;2022-07-04T01:27:34;95256.63;;;20.74;62.82
6423;BME280;3244;42.708;23.288;2022-07-04T01:30:01;95265.19;;;20.74;62.32
6423;BME280;3244;42.708;23.288;2022-07-04T01:32:28;95259.94;;;20.63;62.82
6423;BME280;3244;42.708;23.288;2022-07-04T01:34:55;95264.69;;;20.69;62.06
6423;BME280;3244;42.708;23.288;2022-07-04T01:37:23;95264.06;;;20.65;62.07
6423;BME280;3244;42.708;23.288;2022-07-04T01:39:50;95259.94;;;20.63;62.16
6423;BME280;3244;42.708;23.288;2022-07-04T01:42:16;95265.09;;;20.63;62.02
6423;BME280;3244;42.708;23.288;2022-07-04T01:44:43;95265.53;;;20.57;62.01
6423;BME280;3244;42.708;23.288;2022-07-04T01:47:10;95276.28;;;20.51;62.08
6423;BME280;3244;42.708;23.288;2022-07-04T01:49:37;95272.03;;;20.62;61.42
6423;BME280;3244;42.708;23.288;2022-07-04T01:52:04;95273.09;;;20.47;61.96
6423;BME280;3244;42.708;23.288;2022-07-04T01:54:32;95263.50;;;20.49;61.16
6423;BME280;3244;42.708;23.288;2022-07-04T01:56:59;95258.22;;;20.51;61.62
6423;BME280;3244;42.708;23.288;2022-07-04T01:59:26;95263.88;;;20.56;61.14
6423;BME280;3244;42.708;23.288;2022-07-04T02:02:06;95266.19;;;20.48;60.77
6423;BME280;3244;42.708;23.288;2022-07-04T02:04:33;95257.28;;;20.52;60.40
6423;BME280;3244;42.708;23.288;2022-07-04T02:07:00;95268.81;;;20.71;59.36
6423;BME280;3244;42.708;23.288;2022-07-04T02:09:28;95267.19;;;20.58;59.41
6423;BME280;3244;42.708;23.288;2022-07-04T02:11:57;95273.16;;;20.58;59.95
6423;BME280;3244;42.708;23.288;2022-07-04T02:14:42;95274.19;;;20.56;60.34
6423;BME280;3244;42.708;23.288;2022-07-04T02:17:09;95273.41;;;20.43;60.23
6423;BME280;3244;42.708;23.288;2022-07-04T02:19:36;95281.63;;;20.60;59.80
6423;BME280;3244;42.708;23.288;2022-07-04T02:22:04;95268.00;;;20.58;59.65
6423;BME280;3244;42.708;23.288;2022-07-04T02:24:30;95272.13;;;20.61;59.80
6423;BME280;3244;42.708;23.288;2022-07-04T02:26:59;95276.88;;;20.54;59.31
6423;BME280;3244;42.708;23.288;2022-07-04T02:29:26;95285.34;;;20.56;58.84
6423;BME280;3244;42.708;23.288;2022-07-04T02:31:52;95278.13;;;20.61;59.04
6423;BME280;3244;42.708;23.288;2022-07-04T02:34:19;95280.31;;;20.91;58.27
6423;BME280;3244;42.708;23.288;2022-07-04T02:36:47;95272.25;;;20.96;57.90
6423;BME280;3244;42.708;23.288;2022-07-04T02:39:13;95270.09;;;21.14;57.59
6423;BME280;3244;42.708;23.288;2022-07-04T02:41:40;95276.59;;;20.95;57.74
6423;BME280;3244;42.708;23.288;2022-07-04T02:44:09;95283.13;;;20.88;58.17
6423;BME280;3244;42.708;23.288;2022-07-04T02:46:36;95284.84;;;21.00;57.32
6423;BME280;3244;42.708;23.288;2022-07-04T02:49:03;95287.44;;;21.00;57.39
6423;BME280;3244;42.708;23.288;2022-07-04T02:51:30;95289.34;;;21.10;58.04
6423;BME280;3244;42.708;23.288;2022-07-04T02:53:57;95288.53;;;21.33;57.19
6423;BME280;3244;42.708;23.288;2022-07-04T02:56:24;95291.59;;;21.27;57.73
6423;BME280;3244;42.708;23.288;2022-07-04T02:58:51;95292.56;;;21.37;54.91
6423;BME280;3244;42.708;23.288;2022-07-04T03:01:20;95291.97;;;20.97;56.14
6423;BME280;3244;42.708;23.288;2022-07-04T03:03:47;95301.94;;;21.27;55.55
6423;BME280;3244;42.708;23.288;2022-07-04T03:06:14;95303.28;;;21.44;55.58
6423;BME280;3244;42.708;23.288;2022-07-04T03:08:41;95296.63;;;21.52;55.29
6423;BME280;3244;42.708;23.288;2022-07-04T03:11:08;95300.69;;;21.67;55.65
6423;BME280;3244;42.708;23.288;2022-07-04T03:13:35;95304.63;;;21.60;56.28
6423;BME280;3244;42.708;23.288;2022-07-04T03:16:02;95306.50;;;21.58;57.17
6423;BME280;3244;42.708;23.288;2022-07-04T03:18:30;95306.78;;;21.66;56.96
6423;BME280;3244;42.708;23.288;2022-07-04T03:20:57;95302.91;;;21.37;54.18
6423;BME280;3244;42.708;23.288;2022-07-04T03:23:24;95303.13;;;21.34;54.12
6423;BME280;3244;42.708;23.288;2022-07-04T03:25:51;95302.06;;;21.36;53.75
6423;BME280;3244;42.708;23.288;2022-07-04T03:28:17;95307.41;;;21.46;53.51
6423;BME280;3244;42.708;23.288;2022-07-04T03:30:44;95313.09;;;21.15;54.03
6423;BME280;3244;42.708;23.288;2022-07-04T03:33:11;95306.84;;;21.30;54.54
6423;BME280;3244;42.708;23.288;2022-07-04T03:35:39;95297.84;;;22.05;52.69
6423;BME280;3244;42.708;23.288;2022-07-04T03:38:06;95299.91;;;22.47;51.92
6423;BME280;3244;42.708;23.288;2022-07-04T03:40:33;95304.16;;;23.35;49.87
6423;BME280;3244;42.708;23.288;2022-07-04T03:43:01;95302.78;;;24.47;46.73
6423;BME280;3244;42.708;23.288;2022-07-04T03:45:29;95300.38;;;25.93;45.09
6423;BME280;3244;42.708;23.288;2022-07-04T03:47:56;95301.66;;;27.09;43.19
6423;BME280;3244;42.708;23.288;2022-07-04T03:50:22;95300.41;;;28.02;42.28
6423;BME280;3244;42.708;23.288;2022-07-04T03:52:51;95289.72;;;28.31;42.26
6423;BME280;3244;42.708;23.288;2022-07-04T03:55:18;95289.44;;;28.76;42.23
6423;BME280;3244;42.708;23.288;2022-07-04T03:57:44;95286.78;;;29.53;41.32
6423;BME280;3244;42.708;23.288;2022-07-04T04:00:12;95291.25;;;30.17;40.53
6423;BME280;3244;42.708;23.288;2022-07-04T04:02:39;95290.06;;;30.60;39.83
6423;BME280;3244;42.708;23.288;2022-07-04T04:05:07;95288.06;;;31.18;38.46
6423;BME280;3244;42.708;23.288;2022-07-04T04:07:53;95289.91;;;31.63;37.83
6423;BME280;3244;42.708;23.288;2022-07-04T04:10:20;95285.81;;;32.06;36.92
6423;BME280;3244;42.708;23.288;2022-07-04T04:12:47;95281.47;;;32.13;36.69
6423;BME280;3244;42.708;23.288;2022-07-04T04:15:13;95286.06;;;31.73;37.48
6423;BME280;3244;42.708;23.288;2022-07-04T04:17:40;95283.50;;;30.95;38.36
6423;BME280;3244;42.708;23.288;2022-07-04T04:20:07;95293.56;;;30.12;40.33
6423;BME280;3244;42.708;23.288;2022-07-04T04:22:35;95301.34;;;29.47;41.62
6423;BME280;3244;42.708;23.288;2022-07-04T04:25:03;95299.22;;;28.92;42.78
6423;BME280;3244;42.708;23.288;2022-07-04T04:27:30;95304.66;;;28.47;44.13
6423;BME280;3244;42.708;23.288;2022-07-04T04:29:57;95303.41;;;28.07;45.76
6423;BME280;3244;42.708;23.288;2022-07-04T04:32:24;95300.84;;;27.90;46.17
6423;BME280;3244;42.708;23.288;2022-07-04T04:34:50;95301.72;;;27.45;47.21
6423;BME280;3244;42.708;23.288;2022-07-04T04:37:17;95308.25;;;27.49;47.53
6423;BME280;3244;42.708;23.288;2022-07-04T04:39:44;95302.84;;;27.78;47.04
6423;BME280;3244;42.708;23.288;2022-07-04T04:42:12;95294.28;;;28.11;45.69
6423;BME280;3244;42.708;23.288;2022-07-04T04:44:39;95305.91;;;28.61;44.53
6423;BME280;3244;42.708;23.288;2022-07-04T04:47:06;95305.78;;;29.04;43.35
6423;BME280;3244;42.708;23.288;2022-07-04T04:49:32;95305.81;;;29.13;42.68
6423;BME280;3244;42.708;23.288;2022-07-04T04:51:59;95304.63;;;29.41;42.66
6423;BME280;3244;42.708;23.288;2022-07-04T04:54:26;95308.78;;;29.26;42.30
6423;BME280;3244;42.708;23.288;2022-07-04T04:56:52;95306.13;;;29.68;41.18
6423;BME280;3244;42.708;23.288;2022-07-04T04:59:21;95307.31;;;30.06;40.50
6423;BME280;3244;42.708;23.288;2022-07-04T05:01:48;95301.66;;;30.50;39.63
6423;BME280;3244;42.708;23.288;2022-07-04T05:04:14;95298.06;;;30.51;40.18
6423;BME280;3244;42.708;23.288;2022-07-04T05:06:42;95300.75;;;29.69;40.71
6423;BME280;3244;42.708;23.288;2022-07-04T05:09:09;95310.00;;;29.48;42.02
6423;BME280;3244;42.708;23.288;2022-07-04T05:11:36;95307.63;;;29.20;41.79
6423;BME280;3244;42.708;23.288;2022-07-04T05:14:02;95297.09;;;28.62;43.78
6423;BME280;3244;42.708;23.288;2022-07-04T05:16:31;95301.50;;;28.35;44.33
6423;BME280;3244;42.708;23.288;2022-07-04T05:18:57;95293.34;;;28.72;43.30
6423;BME280;3244;42.708;23.288;2022-07-04T05:21:24;95298.59;;;29.57;42.20
6423;BME280;3244;42.708;23.288;2022-07-04T05:23:53;95300.00;;;31.20;38.95
6423;BME280;3244;42.708;23.288;2022-07-04T05:26:20;95298.00;;;32.89;35.17
6423;BME280;3244;42.708;23.288;2022-07-04T05:28:47;95294.66;;;34.59;32.13
6423;BME280;3244;42.708;23.288;2022-07-04T05:31:14;95289.31;;;35.95;29.98
6423;BME280;3244;42.708;23.288;2022-07-04T05:33:42;95287.56;;;37.06;28.65
6423;BME280;3244;42.708;23.288;2022-07-04T05:36:09;95304.53;;;37.50;27.64
6423;BME280;3244;42.708;23.288;2022-07-04T05:38:36;95305.94;;;37.91;26.93
6423;BME280;3244;42.708;23.288;2022-07-04T05:41:02;95297.06;;;38.35;26.48
6423;BME280;3244;42.708;23.288;2022-07-04T05:43:29;95298.13;;;38.27;26.25
6423;BME280;3244;42.708;23.288;2022-07-04T05:45:56;95291.88;;;38.65;25.95
6423;BME280;3244;42.708;23.288;2022-07-04T05:48:23;95286.69;;;38.02;26.71
6423;BME280;3244;42.708;23.288;2022-07-04T05:50:51;95290.03;;;38.40;25.94
6423;BME280;3244;42.708;23.288;2022-07-04T05:53:17;95278.31;;;38.73;25.57
6423;BME280;3244;42.708;23.288;2022-07-04T05:55:44;95287.91;;;38.74;25.50
6423;BME280;3244;42.708;23.288;2022-07-04T05:58:11;95287.00;;;38.37;26.00
6423;BME280;3244;42.708;23.288;2022-07-04T06:00:39;95293.28;;;37.55;26.76
6423;BME280;3244;42.708;23.288;2022-07-04T06:03:06;95289.44;;;36.99;27.01
6423;BME280;3244;42.708;23.288;2022-07-04T06:05:33;95284.63;;;35.23;28.96
6423;BME280;3244;42.708;23.288;2022-07-04T06:08:01;95286.38;;;35.51;29.47
6423;BME280;3244;42.708;23.288;2022-07-04T06:10:28;95292.72;;;35.15;29.50
6423;BME280;3244;42.708;23.288;2022-07-04T06:12:55;95287.28;;;36.24;28.80
6423;BME280;3244;42.708;23.288;2022-07-04T06:15:22;95290.75;;;36.44;27.73
6423;BME280;3244;42.708;23.288;2022-07-04T06:17:48;95292.44;;;35.44;28.76
6423;BME280;3244;42.708;23.288;2022-07-04T06:20:15;95289.91;;;35.23;28.25
6423;BME280;3244;42.708;23.288;2022-07-04T06:22:44;95292.63;;;35.30;29.17
6423;BME280;3244;42.708;23.288;2022-07-04T06:25:13;95288.25;;;35.76;27.05
6423;BME280;3244;42.708;23.288;2022-07-04T06:27:40;95285.41;;;35.10;27.75
6423;BME280;3244;42.708;23.288;2022-07-04T06:30:08;95281.44;;;35.41;28.06
6423;BME280;3244;42.708;23.288;2022-07-04T06:32:45;95281.16;;;33.76;29.37
6423;BME280;3244;42.708;23.288;2022-07-04T06:35:12;95286.03;;;32.86;30.47
6423;BME280;3244;42.708;23.288;2022-07-04T06:37:56;95279.19;;;32.10;32.12
6423;BME280;3244;42.708;23.288;2022-07-04T06:40:25;95278.78;;;32.21;32.15
6423;BME280;3244;42.708;23.288;2022-07-04T06:42:51;95290.50;;;31.73;31.81
6423;BME280;3244;42.708;23.288;2022-07-04T06:45:18;95283.03;;;31.85;32.61
6423;BME280;3244;42.708;23.288;2022-07-04T06:47:45;95281.53;;;31.67;31.85
6423;BME280;3244;42.708;23.288;2022-07-04T06:50:12;95280.06;;;32.25;31.68
6423;BME280;3244;42.708;23.288;2022-07-04T06:52:39;95276.25;;;32.42;32.33
6423;BME280;3244;42.708;23.288;2022-07-04T06:55:07;95274.84;;;32.55;31.94
6423;BME280;3244;42.708;23.288;2022-07-04T06:57:35;95276.38;;;32.49;31.55
6423;BME280;3244;42.708;23.288;2022-07-04T07:00:03;95276.16;;;32.21;31.02
6423;BME280;3244;42.708;23.288;2022-07-04T07:02:30;95271.63;;;31.92;31.08
6423;BME280;3244;42.708;23.288;2022-07-04T07:04:57;95267.38;;;31.91;32.23
6423;BME280;3244;42.708;23.288;2022-07-04T07:07:24;95267.25;;;31.39;32.21
6423;BME280;3244;42.708;23.288;2022-07-04T07:09:53;95266.19;;;30.86;33.57
6423;BME280;3244;42.708;23.288;2022-07-04T07:12:20;95265.00;;;31.28;33.88
6423;BME280;3244;42.708;23.288;2022-07-04T07:14:48;95263.63;;;31.40;33.75
6423;BME280;3244;42.708;23.288;2022-07-04T07:17:15;95261.28;;;30.83;34.12
6423;BME280;3244;42.708;23.288;2022-07-04T07:19:42;95252.41;;;30.84;33.19
6423;BME280;3244;42.708;23.288;2022-07-04T07:22:10;95260.31;;;31.15;34.06
6423;BME280;3244;42.708;23.288;2022-07-04T07:24:37;95256.00;;;31.22;34.06
6423;BME280;3244;42.708;23.288;2022-07-04T07:27:04;95256.84;;;31.45;33.69
6423;BME280;3244;42.708;23.288;2022-07-04T07:29:31;95260.09;;;31.25;34.74
6423;BME280;3244;42.708;23.288;2022-07-04T07:31:59;95260.22;;;31.54;33.71
6423;BME280;3244;42.708;23.288;2022-07-04T07:34:26;95257.28;;;31.26;32.76
6423;BME280;3244;42.708;23.288;2022-07-04T07:36:53;95255.13;;;30.52;34.63
6423;BME280;3244;42.708;23.288;2022-07-04T07:39:20;95252.16;;;30.46;35.19
6423;BME280;3244;42.708;23.288;2022-07-04T07:41:47;95254.13;;;30.53;35.44
6423;BME280;3244;42.708;23.288;2022-07-04T07:44:14;95255.13;;;30.68;35.31
6423;BME280;3244;42.708;23.288;2022-07-04T07:46:40;95245.53;;;30.83;35.30
6423;BME280;3244;42.708;23.288;2022-07-04T07:49:09;95250.63;;;30.76;34.66
6423;BME280;3244;42.708;23.288;2022-07-04T07:51:36;95252.81;;;30.65;35.31
6423;BME280;3244;42.708;23.288;2022-07-04T07:54:02;95241.88;;;30.92;36.06
6423;BME280;3244;42.708;23.288;2022-07-04T07:56:29;95245.44;;;30.99;36.31
6423;BME280;3244;42.708;23.288;2022-07-04T07:58:56;95240.34;;;30.67;35.97
6423;BME280;3244;42.708;23.288;2022-07-04T08:01:23;95243.69;;;30.36;37.28
6423;BME280;3244;42.708;23.288;2022-07-04T08:03:49;95239.75;;;30.40;36.94
6423;BME280;3244;42.708;23.288;2022-07-04T08:06:35;95234.88;;;29.97;37.16
6423;BME280;3244;42.708;23.288;2022-07-04T08:09:02;95231.16;;;29.67;38.21
6423;BME280;3244;42.708;23.288;2022-07-04T08:11:29;95232.28;;;29.81;38.63
6423;BME280;3244;42.708;23.288;2022-07-04T08:13:56;95236.34;;;30.24;38.17
6423;BME280;3244;42.708;23.288;2022-07-04T08:16:22;95235.13;;;30.59;37.79
6423;BME280;3244;42.708;23.288;2022-07-04T08:18:49;95235.44;;;30.95;37.22
6423;BME280;3244;42.708;23.288;2022-07-04T08:21:16;95238.53;;;30.98;36.82
6423;BME280;3244;42.708;23.288;2022-07-04T08:23:44;95234.38;;;30.81;37.13
6423;BME280;3244;42.708;23.288;2022-07-04T08:26:11;95230.78;;;30.74;36.90
6423;BME280;3244;42.708;23.288;2022-07-04T08:28:38;95223.84;;;30.89;39.46
6423;BME280;3244;42.708;23.288;2022-07-04T08:31:04;95230.88;;;30.58;38.48
6423;BME280;3244;42.708;23.288;2022-07-04T08:33:31;95218.63;;;30.34;38.54
6423;BME280;3244;42.708;23.288;2022-07-04T08:35:58;95224.38;;;30.21;39.18
6423;BME280;3244;42.708;23.288;2022-07-04T08:38:25;95216.94;;;30.49;38.14
6423;BME280;3244;42.708;23.288;2022-07-04T08:40:56;95212.81;;;30.55;38.74
6423;BME280;3244;42.708;23.288;2022-07-04T08:43:24;95215.00;;;30.90;38.65
6423;BME280;3244;42.708;23.288;2022-07-04T08:45:54;95207.81;;;30.76;38.51
6423;BME280;3244;42.708;23.288;2022-07-04T08:48:24;95217.38;;;30.69;39.40
6423;BME280;3244;42.708;23.288;2022-07-04T08:50:55;95218.59;;;30.89;39.13
6423;BME280;3244;42.708;23.288;2022-07-04T08:53:26;95216.72;;;30.98;38.97
6423;BME280;3244;42.708;23.288;2022-07-04T08:55:55;95218.97;;;31.09;38.87
6423;BME280;3244;42.708;23.288;2022-07-04T08:58:41;95215.22;;;31.11;38.95
6423;BME280;3244;42.708;23.288;2022-07-04T09:01:10;95216.19;;;31.10;39.49
6423;BME280;3244;42.708;23.288;2022-07-04T09:03:40;95211.75;;;31.11;39.97
6423;BME280;3244;42.708;23.288;2022-07-04T09:06:08;95208.38;;;30.55;40.06
6423;BME280;3244;42.708;23.288;2022-07-04T09:08:35;95210.88;;;30.49;40.13
6423;BME280;3244;42.708;23.288;2022-07-04T09:11:03;95212.81;;;30.63;41.03
6423;BME280;3244;42.708;23.288;2022-07-04T09:13:30;95205.59;;;30.65;40.01
6423;BME280;3244;42.708;23.288;2022-07-04T09:15:58;95204.34;;;30.84;41.02
6423;BME280;3244;42.708;23.288;2022-07-04T09:18:26;95210.94;;;31.10;39.63
6423;BME280;3244;42.708;23.288;2022-07-04T09:20:55;95206.78;;;30.93;39.43
6423;BME280;3244;42.708;23.288;2022-07-04T09:23:23;95211.63;;;31.04;38.91
6423;BME280;3244;42.708;23.288;2022-07-04T09:26:08;95198.25;;;30.60;39.11
6423;BME280;3244;42.708;23.288;2022-07-04T09:28:35;95206.53;;;31.03;38.97
6423;BME280;3244;42.708;23.288;2022-07-04T09:31:13;95206.16;;;30.83;38.02
6423;BME280;3244;42.708;23.288;2022-07-04T09:33:51;95204.94;;;30.55;37.71
6423;BME280;3244;42.708;23.288;2022-07-04T09:36:20;95199.94;;;30.84;35.96
6423;BME280;3244;42.708;23.288;2022-07-04T09:39:11;95201.03;;;30.59;37.22
6423;BME280;3244;42.708;23.288;2022-07-04T09:41:55;95189.22;;;30.55;38.05
6423;BME280;3244;42.708;23.288;2022-07-04T09:44:22;95186.81;;;30.84;36.80
6423;BME280;3244;42.708;23.288;2022-07-04T09:46:50;95183.03;;;30.87;35.59
6423;BME280;3244;42.708;23.288;2022-07-04T09:49:17;95186.00;;;31.15;37.23
6423;BME280;3244;42.708;23.288;2022-07-04T09:51:46;95182.00;;;31.19;35.96
6423;BME280;3244;42.708;23.288;2022-07-04T09:54:18;95187.03;;;31.28;36.78
6423;BME280;3244;42.708;23.288;2022-07-04T09:56:49;95178.50;;;31.49;37.47
6423;BME280;3244;42.708;23.288;2022-07-04T09:59:18;95180.28;;;31.34;36.47
6423;BME280;3244;42.708;23.288;2022-07-04T10:01:46;95173.38;;;31.33;37.44
6423;BME280;3244;42.708;23.288;2022-07-04T10:04:13;95179.56;;;31.63;37.95
6423;BME280;3244;42.708;23.288;2022-07-04T10:06:41;95186.88;;;31.30;36.69
6423;BME280;3244;42.708;23.288;2022-07-04T10:09:13;95188.69;;;31.29;37.70
6423;BME280;3244;42.708;23.288;2022-07-04T10:11:42;95188.09;;;30.88;37.36
6423;BME280;3244;42.708;23.288;2022-07-04T10:14:12;95185.19;;;30.75;37.92
6423;BME280;3244;42.708;23.288;2022-07-04T10:16:40;95184.38;;;30.74;38.36
6423;BME280;3244;42.708;23.288;2022-07-04T10:19:08;95186.59;;;30.63;38.79
6423;BME280;3244;42.708;23.288;2022-07-04T10:21:38;95183.31;;;30.53;38.65
6423;BME280;3244;42.708;23.288;2022-07-04T10:24:05;95178.66;;;30.32;39.18
6423;BME280;3244;42.708;23.288;2022-07-04T10:26:32;95169.22;;;30.54;39.02
6423;BME280;3244;42.708;23.288;2022-07-04T10:28:59;95175.00;;;30.80;39.23
6423;BME280;3244;42.708;23.288;2022-07-04T10:31:28;95179.16;;;30.97;38.93
6423;BME280;3244;42.708;23.288;2022-07-04T10:33:58;95167.09;;;31.42;38.77
6423;BME280;3244;42.708;23.288;2022-07-04T10:36:27;95176.06;;;31.25;38.40
6423;BME280;3244;42.708;23.288;2022-07-04T10:38:57;95169.47;;;30.75;39.44
6423;BME280;3244;42.708;23.288;2022-07-04T10:41:26;95163.28;;;30.68;39.79
6423;BME280;3244;42.708;23.288;2022-07-04T10:43:56;95164.66;;;31.09;40.32
6423;BME280;3244;42.708;23.288;2022-07-04T10:46:36;95165.06;;;31.44;39.37
6423;BME280;3244;42.708;23.288;2022-07-04T10:49:06;95157.34;;;31.88;38.94
6423;BME280;3244;42.708;23.288;2022-07-04T10:51:41;95155.25;;;31.84;38.05
6423;BME280;3244;42.708;23.288;2022-07-04T10:54:11;95151.28;;;31.65;38.37
6423;BME280;3244;42.708;23.288;2022-07-04T10:56:40;95144.88;;;31.44;38.35
6423;BME280;3244;42.708;23.288;2022-07-04T10:59:10;95151.53;;;31.55;39.67
6423;BME280;3244;42.708;23.288;2022-07-04T11:01:38;95153.78;;;31.66;38.33
6423;BME280;3244;42.708;23.288;2022-07-04T11:04:06;95141.28;;;31.23;38.69
6423;BME280;3244;42.708;23.288;2022-07-04T11:06:52;95136.13;;;31.15;38.66
6423;BME280;3244;42.708;23.288;2022-07-04T11:09:21;95144.13;;;30.90;40.56
6423;BME280;3244;42.708;23.288;2022-07-04T11:11:54;95134.63;;;30.89;40.09
6423;BME280;3244;42.708;23.288;2022-07-04T11:14:38;95133.34;;;31.31;40.21
6423;BME280;3244;42.708;23.288;2022-07-04T11:17:07;95133.06;;;31.63;39.23
6423;BME280;3244;42.708;23.288;2022-07-04T11:19:36;95130.50;;;31.78;38.86
6423;BME280;3244;42.708;23.288;2022-07-04T11:22:04;95128.19;;;31.60;38.84
6423;BME280;3244;42.708;23.288;2022-07-04T11:24:32;95127.66;;;31.65;39.21
6423;BME280;3244;42.708;23.288;2022-07-04T11:26:59;95133.97;;;31.18;39.46
6423;BME280;3244;42.708;23.288;2022-07-04T11:29:27;95133.41;;;30.69;40.58
6423;BME280;3244;42.708;23.288;2022-07-04T11:31:54;95135.31;;;30.83;41.05
6423;BME280;3244;42.708;23.288;2022-07-04T11:34:21;95132.00;;;30.89;40.58
6423;BME280;3244;42.708;23.288;2022-07-04T11:36:51;95128.03;;;31.39;40.62
6423;BME280;3244;42.708;23.288;2022-07-04T11:39:20;95115.53;;;31.78;39.44
6423;BME280;3244;42.708;23.288;2022-07-04T11:41:49;95125.72;;;32.26;38.83
6423;BME280;3244;42.708;23.288;2022-07-04T11:44:35;95107.66;;;32.37;39.01
6423;BME280;3244;42.708;23.288;2022-07-04T11:47:32;95106.50;;;32.25;39.14
6423;BME280;3244;42.708;23.288;2022-07-04T11:50:01;95095.97;;;31.81;38.31
6423;BME280;3244;42.708;23.288;2022-07-04T11:52:38;95107.28;;;31.44;39.20
6423;BME280;3244;42.708;23.288;2022-07-04T11:55:06;95093.41;;;31.73;38.98
6423;BME280;3244;42.708;23.288;2022-07-04T11:57:34;95094.88;;;32.05;39.13
6423;BME280;3244;42.708;23.288;2022-07-04T12:00:04;95088.13;;;32.46;38.57
6423;BME280;3244;42.708;23.288;2022-07-04T12:02:32;95074.91;;;32.76;38.13
6423;BME280;3244;42.708;23.288;2022-07-04T12:05:00;95077.16;;;32.43;37.40
6423;BME280;3244;42.708;23.288;2022-07-04T12:07:30;95084.72;;;32.02;38.58
6423;BME280;3244;42.708;23.288;2022-07-04T12:10:06;95089.84;;;31.14;40.17
6423;BME280;3244;42.708;23.288;2022-07-04T12:12:34;95080.94;;;30.69;40.67
6423;BME280;3244;42.708;23.288;2022-07-04T12:15:03;95069.19;;;30.65;40.85
6423;BME280;3244;42.708;23.288;2022-07-04T12:17:32;95072.03;;;30.47;41.99
6423;BME280;3244;42.708;23.288;2022-07-04T12:20:00;95066.06;;;30.92;41.21
6423;BME280;3244;42.708;23.288;2022-07-04T12:22:34;95071.31;;;31.15;40.67
6423;BME280;3244;42.708;23.288;2022-07-04T12:25:03;95061.81;;;31.29;40.94
6423;BME280;3244;42.708;23.288;2022-07-04T12:27:31;95079.00;;;31.17;41.09
6423;BME280;3244;42.708;23.288;2022-07-04T12:29:59;95073.16;;;30.84;41.72
6423;BME280;3244;42.708;23.288;2022-07-04T12:32:49;95054.16;;;30.59;43.17
6423;BME280;3244;42.708;23.288;2022-07-04T12:35:39;95061.59;;;30.70;42.33
6423;BME280;3244;42.708;23.288;2022-07-04T12:38:10;95056.13;;;30.79;43.44
6423;BME280;3244;42.708;23.288;2022-07-04T12:40:49;95060.69;;;30.86;42.68
6423;BME280;3244;42.708;23.288;2022-07-04T12:43:16;95059.63;;;31.18;42.16
6423;BME280;3244;42.708;23.288;2022-07-04T12:45:45;95060.03;;;30.61;42.84
6423;BME280;3244;42.708;23.288;2022-07-04T12:48:21;95057.00;;;30.10;43.82
6423;BME280;3244;42.708;23.288;2022-07-04T12:50:48;95065.53;;;29.96;45.41
6423;BME280;3244;42.708;23.288;2022-07-04T12:53:16;95062.97;;;29.79;44.78
6423;BME280;3244;42.708;23.288;2022-07-04T12:55:44;95070.78;;;30.04;44.49
6423;BME280;3244;42.708;23.288;2022-07-04T12:58:11;95063.16;;;30.25;45.11
6423;BME280;3244;42.708;23.288;2022-07-04T13:00:39;95049.53;;;30.61;43.55
6423;BME280;3244;42.708;23.288;2022-07-04T13:03:06;95051.00;;;30.86;44.35
6423;BME280;3244;42.708;23.288;2022-07-04T13:05:34;95049.50;;;31.15;42.21
6423;BME280;3244;42.708;23.288;2022-07-04T13:08:02;95043.97;;;31.01;43.21
6423;BME280;3244;42.708;23.288;2022-07-04T13:10:30;95047.38;;;30.87;43.21
6423;BME280;3244;42.708;23.288;2022-07-04T13:12:58;95034.63;;;30.30;43.97
6423;BME280;3244;42.708;23.288;2022-07-04T13:15:25;95033.09;;;30.05;45.05
6423;BME280;3244;42.708;23.288;2022-07-04T13:17:51;95036.06;;;30.02;44.71